Time;durP1;ratioP1;P1;durP2;ratioP2;P2;SDS_P1;SDS_P2;PMS_P1;PMS_P2;Temp;Humidity;BMP_temperature;BMP_pressure;BME280_temperature;BME280_humidity;BME280_pressure;Samples;Min_cycle;Max_cycle;Signal;HPM_P1;HPM_P2
2022/03/09 00:00:24;;;;;;;11.60;8.07;;;6.10;47.30;;;;;;5045346;28;20025;-70
2022/03/09 00:02:49;;;;;;;10.98;7.38;;;6.00;47.30;;;;;;5042401;28;20444;-71
2022/03/09 00:05:15;;;;;;;13.32;7.45;;;6.00;47.30;;;;;;5043354;28;20491;-70
2022/03/09 00:07:40;;;;;;;10.75;7.53;;;6.00;47.50;;;;;;5044206;28;20025;-70
2022/03/09 00:10:07;;;;;;;11.18;7.63;;;5.90;47.60;;;;;;5040971;28;20021;-70
2022/03/09 00:12:33;;;;;;;8.90;6.10;;;5.90;47.60;;;;;;5045026;28;20037;-70
2022/03/09 00:14:59;;;;;;;8.55;6.45;;;5.90;47.60;;;;;;5042480;28;20017;-72
2022/03/09 00:17:24;;;;;;;9.85;6.20;;;5.80;47.60;;;;;;5044630;28;20518;-71
2022/03/09 00:19:50;;;;;;;7.18;5.05;;;5.90;47.60;;;;;;5043105;28;20025;-71
2022/03/09 00:22:15;;;;;;;9.10;5.80;;;5.90;47.60;;;;;;5043996;28;20044;-70
2022/03/09 00:24:41;;;;;;;9.55;6.43;;;5.80;47.60;;;;;;5041384;28;20032;-71
2022/03/09 00:27:07;;;;;;;7.97;5.88;;;5.80;47.60;;;;;;5041854;28;20108;-70
2022/03/09 00:29:33;;;;;;;9.23;6.15;;;5.70;47.60;;;;;;5042782;28;20113;-70
2022/03/09 00:31:58;;;;;;;9.30;5.57;;;5.70;47.70;;;;;;5043913;28;20029;-71
2022/03/09 00:34:24;;;;;;;9.77;6.32;;;5.70;47.70;;;;;;5041325;28;20029;-71
2022/03/09 00:36:49;;;;;;;9.65;6.38;;;5.70;47.80;;;;;;5048204;28;20025;-71
2022/03/09 00:39:15;;;;;;;9.98;6.55;;;5.60;47.90;;;;;;5044856;28;20491;-72
2022/03/09 00:41:41;;;;;;;9.20;6.68;;;5.70;47.90;;;;;;5042659;28;20057;-71
2022/03/09 00:44:06;;;;;;;12.25;7.18;;;5.60;47.90;;;;;;5042075;28;20124;-71
2022/03/09 00:46:32;;;;;;;10.70;7.22;;;5.60;48.00;;;;;;5039796;28;20030;-70
2022/03/09 00:48:57;;;;;;;10.30;7.35;;;5.60;48.00;;;;;;5047130;28;20025;-71
2022/03/09 00:51:23;;;;;;;14.88;10.10;;;5.60;48.00;;;;;;5048133;28;20098;-69
2022/03/09 00:53:49;;;;;;;10.38;7.28;;;5.50;48.10;;;;;;5050486;28;20123;-71
2022/03/09 00:56:15;;;;;;;8.48;6.47;;;5.50;48.10;;;;;;5050979;28;20104;-71
2022/03/09 00:58:41;;;;;;;10.32;6.55;;;5.50;48.10;;;;;;5044261;28;20058;-71
2022/03/09 01:01:08;;;;;;;9.95;6.32;;;5.50;48.10;;;;;;5048791;28;20116;-71
2022/03/09 01:03:33;;;;;;;10.73;7.05;;;5.50;48.70;;;;;;5051879;28;20060;-71
2022/03/09 01:05:59;;;;;;;8.77;6.25;;;5.50;48.10;;;;;;5050263;28;20458;-71
2022/03/09 01:08:24;;;;;;;10.35;6.85;;;5.50;48.10;;;;;;5042354;28;20033;-71
2022/03/09 01:10:50;;;;;;;8.40;5.60;;;5.40;48.10;;;;;;5047004;28;20044;-71
2022/03/09 01:13:16;;;;;;;9.52;5.95;;;5.40;48.00;;;;;;5051666;28;20123;-71
2022/03/09 01:15:41;;;;;;;13.18;8.00;;;5.40;48.10;;;;;;5051370;28;20087;-71
2022/03/09 01:18:07;;;;;;;10.13;6.82;;;5.40;48.10;;;;;;5047501;28;20033;-71
2022/03/09 01:20:32;;;;;;;8.60;6.15;;;5.40;48.80;;;;;;5039703;28;20092;-72
2022/03/09 01:22:58;;;;;;;7.72;5.72;;;5.40;48.20;;;;;;5048314;28;20037;-72
2022/03/09 01:25:23;;;;;;;9.38;6.10;;;5.40;48.30;;;;;;5050679;28;20059;-72
2022/03/09 01:27:49;;;;;;;9.25;6.10;;;5.30;48.20;;;;;;5049940;28;20647;-72
2022/03/09 01:30:14;;;;;;;9.95;7.10;;;5.30;48.20;;;;;;5043362;28;20060;-72
2022/03/09 01:32:40;;;;;;;10.38;6.75;;;5.30;48.20;;;;;;5049914;28;20106;-72
2022/03/09 01:35:06;;;;;;;11.68;7.22;;;5.20;48.30;;;;;;5049939;28;20029;-72
2022/03/09 01:37:32;;;;;;;9.70;6.55;;;5.30;48.40;;;;;;5050012;28;20070;-72
2022/03/09 01:39:57;;;;;;;9.32;6.00;;;5.20;48.40;;;;;;5049297;28;20099;-72
2022/03/09 01:42:23;;;;;;;9.38;6.03;;;5.20;48.40;;;;;;5044140;28;20040;-72
2022/03/09 01:44:49;;;;;;;10.52;7.15;;;5.20;48.40;;;;;;5048662;28;20116;-72
2022/03/09 01:47:14;;;;;;;8.02;5.80;;;5.20;48.40;;;;;;5045822;28;20428;-72
2022/03/09 01:49:40;;;;;;;8.35;5.20;;;5.20;48.40;;;;;;5041590;28;20033;-71
2022/03/09 01:52:07;;;;;;;7.65;5.57;;;5.20;48.40;;;;;;5039101;28;20029;-71
2022/03/09 01:54:32;;;;;;;10.15;6.45;;;5.20;48.40;;;;;;5043183;28;20112;-72
2022/03/09 01:56:59;;;;;;;9.82;5.60;;;5.20;48.40;;;;;;5046550;28;20096;-73
2022/03/09 01:59:25;;;;;;;9.05;6.53;;;5.20;48.40;;;;;;5049914;28;20029;-72
2022/03/09 02:01:51;;;;;;;8.63;6.07;;;5.20;48.50;;;;;;5044716;28;20024;-73
2022/03/09 02:04:18;;;;;;;15.35;10.00;;;5.10;48.50;;;;;;5048732;28;20044;-73
2022/03/09 02:06:45;;;;;;;18.75;11.02;;;5.10;48.50;;;;;;5042721;28;20025;-71
2022/03/09 02:11:57;;;;;;;10.23;7.05;;;5.10;48.50;;;;;;5037534;28;20035;-72
2022/03/09 02:14:37;;;;;;;11.32;7.60;;;5.10;48.50;;;;;;5042779;28;20026;-72
2022/03/09 02:17:27;;;;;;;9.93;6.20;;;5.10;48.60;;;;;;5047739;28;20446;-71
2022/03/09 02:19:54;;;;;;;9.70;6.55;;;5.10;48.60;;;;;;5040310;28;20454;-71
2022/03/09 02:22:19;;;;;;;11.90;7.32;;;5.00;48.70;;;;;;5049663;28;20186;-71
2022/03/09 02:24:46;;;;;;;10.20;7.43;;;5.00;48.80;;;;;;5041891;28;20164;-72
2022/03/09 02:27:11;;;;;;;10.70;6.80;;;5.00;49.00;;;;;;5041008;28;20418;-72
2022/03/09 02:29:38;;;;;;;8.82;5.88;;;4.90;49.00;;;;;;5049011;28;20029;-71
2022/03/09 02:32:04;;;;;;;9.10;6.10;;;4.90;48.90;;;;;;5047813;28;20091;-70
2022/03/09 02:34:30;;;;;;;8.32;5.75;;;4.90;49.00;;;;;;5041946;28;20033;-71
2022/03/09 02:36:56;;;;;;;9.65;5.60;;;4.90;48.90;;;;;;5044452;28;20032;-70
2022/03/09 02:39:22;;;;;;;9.95;6.28;;;4.90;49.00;;;;;;5049089;28;20021;-71
2022/03/09 02:41:47;;;;;;;9.23;6.30;;;4.90;49.00;;;;;;5049971;28;20539;-71
2022/03/09 02:44:13;;;;;;;9.05;5.75;;;4.90;49.10;;;;;;5041153;28;20077;-71
2022/03/09 02:46:39;;;;;;;8.80;6.43;;;4.80;49.20;;;;;;5045003;28;20021;-71
2022/03/09 02:49:04;;;;;;;10.23;6.28;;;4.80;49.20;;;;;;5040054;28;20021;-71
2022/03/09 02:51:30;;;;;;;10.20;6.50;;;4.80;49.20;;;;;;5049255;28;20021;-71
2022/03/09 02:53:55;;;;;;;9.68;6.32;;;4.70;49.30;;;;;;5045008;28;20052;-70
2022/03/09 02:56:21;;;;;;;8.95;6.28;;;4.70;49.50;;;;;;5045587;28;20067;-70
2022/03/09 02:58:47;;;;;;;7.90;5.70;;;4.60;49.50;;;;;;5048443;28;20043;-70
2022/03/09 03:01:14;;;;;;;9.68;5.65;;;4.60;49.60;;;;;;5035745;28;20503;-71
2022/03/09 03:03:43;;;;;;;8.07;5.35;;;4.60;49.60;;;;;;5048478;28;20032;-72
2022/03/09 03:06:10;;;;;;;8.57;5.90;;;4.60;49.60;;;;;;5049620;28;20458;-71
2022/03/09 03:08:37;;;;;;;8.30;6.00;;;4.60;49.60;;;;;;5048512;28;20048;-71
2022/03/09 03:11:04;;;;;;;9.05;6.50;;;4.60;49.60;;;;;;5048730;28;20028;-71
2022/03/09 03:13:30;;;;;;;7.80;5.38;;;4.70;49.60;;;;;;5045065;28;20407;-72
2022/03/09 03:15:56;;;;;;;8.25;5.70;;;4.60;49.60;;;;;;5041691;28;20021;-72
2022/03/09 03:18:22;;;;;;;10.15;7.00;;;4.60;49.60;;;;;;5046882;28;20052;-72
2022/03/09 03:20:48;;;;;;;7.95;5.40;;;4.60;49.70;;;;;;5048759;28;20456;-72
2022/03/09 03:23:13;;;;;;;10.35;6.35;;;4.60;49.70;;;;;;5048968;28;20144;-72
2022/03/09 03:25:39;;;;;;;9.50;5.90;;;4.60;50.50;;;;;;5049001;28;20132;-72
2022/03/09 03:28:04;;;;;;;9.18;6.72;;;4.60;49.80;;;;;;5047920;28;20040;-72
2022/03/09 03:30:30;;;;;;;7.80;5.78;;;4.60;49.80;;;;;;5041599;28;20026;-72
2022/03/09 03:32:55;;;;;;;9.27;6.30;;;4.60;49.80;;;;;;5046420;28;20041;-71
2022/03/09 03:35:21;;;;;;;8.75;5.80;;;4.60;49.80;;;;;;5048235;28;20036;-71
2022/03/09 03:37:47;;;;;;;7.60;5.30;;;4.60;49.90;;;;;;5041074;28;20480;-71
2022/03/09 03:40:12;;;;;;;8.07;5.25;;;4.60;49.80;;;;;;5036716;28;20025;-71
2022/03/09 03:42:38;;;;;;;7.63;5.32;;;4.60;49.70;;;;;;5032598;28;20025;-71
2022/03/09 03:45:04;;;;;;;8.23;5.85;;;4.60;49.80;;;;;;5047915;28;20461;-71
2022/03/09 03:47:30;;;;;;;7.85;5.53;;;4.60;49.80;;;;;;5039072;28;20030;-70
2022/03/09 03:49:55;;;;;;;8.60;5.57;;;4.50;49.70;;;;;;5041539;28;20047;-71
2022/03/09 03:52:21;;;;;;;7.00;4.93;;;4.50;49.80;;;;;;5044269;28;20060;-71
2022/03/09 03:54:46;;;;;;;8.35;5.88;;;4.50;49.80;;;;;;5046641;28;20403;-71
2022/03/09 03:57:12;;;;;;;9.80;6.00;;;4.50;49.80;;;;;;5044660;28;20021;-70
2022/03/09 03:59:38;;;;;;;9.98;5.35;;;4.50;49.90;;;;;;5034831;28;20036;-71
2022/03/09 04:02:03;;;;;;;7.70;5.00;;;4.50;49.90;;;;;;5048251;28;20032;-70
2022/03/09 04:04:29;;;;;;;8.20;6.32;;;4.50;49.90;;;;;;5047320;28;20082;-69
2022/03/09 04:06:54;;;;;;;9.70;5.65;;;4.40;50.00;;;;;;5046619;28;20387;-71
2022/03/09 04:09:20;;;;;;;7.60;5.07;;;4.40;50.00;;;;;;5040345;28;20033;-70
2022/03/09 04:11:45;;;;;;;8.23;5.30;;;4.40;50.00;;;;;;5037366;28;20017;-71
2022/03/09 04:14:11;;;;;;;8.27;5.43;;;4.40;50.00;;;;;;5042039;28;20029;-71
2022/03/09 04:16:36;;;;;;;7.95;5.55;;;4.40;50.00;;;;;;5041679;28;20025;-71
2022/03/09 04:19:02;;;;;;;8.75;5.43;;;4.40;50.00;;;;;;5041916;28;20155;-71
2022/03/09 04:21:28;;;;;;;8.48;5.40;;;4.40;50.10;;;;;;5050487;28;20115;-71
2022/03/09 04:23:53;;;;;;;7.75;5.32;;;4.30;50.10;;;;;;5043078;28;20041;-72
2022/03/09 04:26:19;;;;;;;7.53;5.15;;;4.30;50.10;;;;;;5050259;28;20031;-71
2022/03/09 04:28:44;;;;;;;7.65;5.28;;;4.30;50.20;;;;;;5051602;28;20054;-72
2022/03/09 04:31:10;;;;;;;6.93;4.75;;;4.30;50.20;;;;;;5051717;28;20036;-72
2022/03/09 04:33:35;;;;;;;6.80;4.75;;;4.20;50.30;;;;;;5051023;28;20032;-72
2022/03/09 04:36:01;;;;;;;10.70;6.50;;;4.20;50.40;;;;;;5048547;28;20430;-72
2022/03/09 04:38:26;;;;;;;9.45;6.60;;;4.20;50.50;;;;;;5040715;28;20033;-71
2022/03/09 04:40:52;;;;;;;7.70;5.53;;;4.10;50.60;;;;;;5048904;28;20032;-72
2022/03/09 04:43:18;;;;;;;9.98;5.97;;;4.10;50.50;;;;;;5047616;28;20033;-72
2022/03/09 04:45:43;;;;;;;8.73;5.65;;;4.10;50.60;;;;;;5045812;28;20078;-72
2022/03/09 04:48:09;;;;;;;8.48;5.85;;;4.10;50.60;;;;;;5051656;28;20116;-71
2022/03/09 04:50:34;;;;;;;10.30;6.68;;;4.10;50.70;;;;;;5050472;28;20036;-71
2022/03/09 04:53:00;;;;;;;10.02;6.68;;;4.10;50.70;;;;;;5049242;28;20447;-71
2022/03/09 04:55:25;;;;;;;9.00;5.97;;;4.10;50.80;;;;;;5046964;28;20037;-71
2022/03/09 04:57:51;;;;;;;9.07;5.15;;;4.00;50.70;;;;;;5042769;28;20029;-71
2022/03/09 05:00:17;;;;;;;7.60;5.35;;;4.10;50.70;;;;;;5049583;28;20036;-71
2022/03/09 05:02:43;;;;;;;7.05;5.03;;;4.10;50.70;;;;;;5051143;28;20028;-71
2022/03/09 05:05:09;;;;;;;8.13;5.80;;;4.10;50.70;;;;;;5045222;28;20052;-71
2022/03/09 05:07:38;;;;;;;8.77;5.97;;;4.00;50.70;;;;;;5051895;28;20025;-71
2022/03/09 05:10:03;;;;;;;9.13;5.95;;;4.00;50.70;;;;;;5051192;28;20430;-72
2022/03/09 05:12:30;;;;;;;9.05;5.90;;;4.00;50.70;;;;;;5050752;28;20048;-71
2022/03/09 05:14:55;;;;;;;10.85;7.53;;;4.00;50.80;;;;;;5041474;28;20394;-71
2022/03/09 05:17:21;;;;;;;12.10;7.43;;;3.90;50.90;;;;;;5048353;28;20120;-71
2022/03/09 05:19:47;;;;;;;10.38;7.03;;;3.90;51.00;;;;;;5049455;28;20039;-71
2022/03/09 05:22:12;;;;;;;11.00;7.13;;;3.90;50.90;;;;;;5051316;28;20394;-71
2022/03/09 05:24:38;;;;;;;9.98;6.80;;;3.90;51.10;;;;;;5044935;28;20033;-71
2022/03/09 05:27:04;;;;;;;11.15;7.35;;;3.90;51.10;;;;;;5047894;28;20025;-71
2022/03/09 05:29:29;;;;;;;13.50;7.60;;;3.90;51.10;;;;;;5049724;28;20086;-71
2022/03/09 05:31:55;;;;;;;13.43;8.38;;;3.90;51.20;;;;;;5049938;28;20438;-71
2022/03/09 05:34:20;;;;;;;9.00;6.72;;;3.90;51.20;;;;;;5046692;28;20029;-71
2022/03/09 05:36:46;;;;;;;11.82;7.57;;;3.90;51.20;;;;;;5041713;28;20033;-71
2022/03/09 05:39:12;;;;;;;9.88;6.45;;;3.90;51.30;;;;;;5049566;28;20017;-73
2022/03/09 05:41:37;;;;;;;10.00;6.80;;;3.80;51.30;;;;;;5048130;28;20055;-72
2022/03/09 05:44:03;;;;;;;10.18;6.40;;;3.80;51.50;;;;;;5049259;28;20128;-72
2022/03/09 05:46:29;;;;;;;10.43;6.88;;;3.80;51.50;;;;;;5047262;28;20028;-72
2022/03/09 05:48:54;;;;;;;10.20;7.15;;;3.80;51.60;;;;;;5040131;28;20025;-72
2022/03/09 05:51:20;;;;;;;10.60;7.40;;;3.80;51.70;;;;;;5045052;28;20021;-73
2022/03/09 05:53:46;;;;;;;9.75;6.50;;;3.80;51.80;;;;;;5049258;28;20135;-72
2022/03/09 05:56:11;;;;;;;10.10;6.25;;;3.70;51.80;;;;;;5048044;28;20032;-72
2022/03/09 05:58:37;;;;;;;11.15;6.82;;;3.70;51.70;;;;;;5042617;28;20037;-72
2022/03/09 06:01:02;;;;;;;11.05;7.35;;;3.70;51.80;;;;;;5045642;28;20033;-71
2022/03/09 06:03:28;;;;;;;10.45;6.35;;;3.80;51.90;;;;;;5040011;28;20025;-72
2022/03/09 06:05:53;;;;;;;10.00;7.10;;;3.80;51.80;;;;;;5042549;28;20024;-72
2022/03/09 06:08:19;;;;;;;11.38;7.18;;;3.80;51.80;;;;;;5042870;28;20036;-71
2022/03/09 06:10:44;;;;;;;10.77;7.97;;;3.70;51.70;;;;;;5045037;28;20502;-72
2022/03/09 06:13:10;;;;;;;10.90;6.65;;;3.70;51.70;;;;;;5043028;28;20090;-72
2022/03/09 06:15:36;;;;;;;10.35;7.60;;;3.80;51.70;;;;;;5041927;28;20021;-81
2022/03/09 06:18:01;;;;;;;10.55;6.93;;;3.80;51.70;;;;;;5037603;28;20482;-72
2022/03/09 06:20:27;;;;;;;9.70;6.38;;;3.70;51.70;;;;;;5041151;28;20101;-72
2022/03/09 06:22:53;;;;;;;8.38;5.50;;;3.80;51.70;;;;;;5040553;28;20499;-72
2022/03/09 06:25:19;;;;;;;10.25;6.15;;;3.80;51.70;;;;;;5038549;28;20679;-72
2022/03/09 06:27:50;;;;;;;9.35;6.45;;;3.80;51.60;;;;;;5038062;28;20064;-72
2022/03/09 06:30:16;;;;;;;8.32;5.60;;;3.80;51.60;;;;;;5039888;28;20100;-72
2022/03/09 06:32:43;;;;;;;9.45;5.88;;;3.80;51.60;;;;;;5038945;28;20116;-72
2022/03/09 06:35:10;;;;;;;9.27;6.05;;;3.80;51.60;;;;;;5041679;28;20033;-72
2022/03/09 06:37:35;;;;;;;10.30;5.80;;;3.90;51.60;;;;;;5040675;28;20031;-71
2022/03/09 06:40:03;;;;;;;8.82;5.93;;;3.80;51.50;;;;;;5037971;28;20037;-71
2022/03/09 06:42:29;;;;;;;9.48;5.97;;;3.90;51.70;;;;;;5039152;28;20032;-72
2022/03/09 06:56:08;;;;;;;9.10;5.78;;;3.50;49.80;;;;;;5080557;27;20459;-72
2022/03/09 06:58:34;;;;;;;8.52;5.82;;;3.40;51.20;;;;;;5064293;28;20017;-72
2022/03/09 07:00:59;;;;;;;10.52;6.32;;;3.40;52.20;;;;;;5060798;28;20140;-72
2022/03/09 07:03:25;;;;;;;8.63;5.80;;;3.40;52.60;;;;;;5056785;28;20101;-72
2022/03/09 07:05:52;;;;;;;11.85;6.60;;;3.60;52.70;;;;;;5053991;28;20048;-72
2022/03/09 07:08:18;;;;;;;8.57;5.82;;;3.70;52.70;;;;;;5057976;28;20020;-72
2022/03/09 07:10:43;;;;;;;8.38;5.63;;;3.90;52.50;;;;;;5058970;28;20066;-72
2022/03/09 07:13:09;;;;;;;10.20;7.00;;;4.00;52.20;;;;;;5056546;28;20422;-72
2022/03/09 07:15:34;;;;;;;10.77;6.40;;;4.20;52.10;;;;;;5055375;28;20543;-72
2022/03/09 07:18:00;;;;;;;8.57;6.05;;;4.30;51.80;;;;;;5056419;28;20021;-72
2022/03/09 07:20:25;;;;;;;8.05;6.03;;;4.40;51.60;;;;;;5057785;28;20032;-72
2022/03/09 07:22:51;;;;;;;9.93;6.78;;;4.50;51.50;;;;;;5056106;28;20030;-72
2022/03/09 07:25:17;;;;;;;11.63;6.80;;;4.60;51.40;;;;;;5058000;28;20471;-71
2022/03/09 07:27:43;;;;;;;10.25;7.00;;;4.70;51.30;;;;;;5053216;28;20053;-71
2022/03/09 07:30:09;;;;;;;8.70;6.07;;;4.70;51.00;;;;;;5060046;28;20025;-72
2022/03/09 07:32:35;;;;;;;10.02;7.18;;;4.80;51.00;;;;;;5057289;28;20047;-75
2022/03/09 07:35:01;;;;;;;11.02;8.05;;;4.90;50.90;;;;;;5053468;28;20045;-73
2022/03/09 07:37:26;;;;;;;10.65;7.13;;;4.90;50.70;;;;;;5055875;28;20089;-71
2022/03/09 07:39:53;;;;;;;10.18;6.82;;;5.00;50.70;;;;;;5057680;28;20539;-71
2022/03/09 07:42:19;;;;;;;10.77;6.20;;;5.10;51.20;;;;;;5058258;28;20025;-72
2022/03/09 07:44:44;;;;;;;8.88;6.07;;;5.20;50.50;;;;;;5051958;28;20052;-71
2022/03/09 07:47:10;;;;;;;9.07;6.53;;;5.20;50.30;;;;;;5055404;28;20079;-70
2022/03/09 07:49:37;;;;;;;10.38;7.20;;;5.30;50.30;;;;;;5052632;28;20735;-72
2022/03/09 07:52:04;;;;;;;10.48;6.90;;;5.40;50.20;;;;;;5054157;28;20052;-73
2022/03/09 07:54:29;;;;;;;11.23;7.22;;;5.50;50.00;;;;;;5054535;28;20043;-73
2022/03/09 07:56:55;;;;;;;10.75;7.38;;;5.50;49.70;;;;;;5053833;28;20032;-73
2022/03/09 07:59:21;;;;;;;9.57;7.10;;;5.60;49.60;;;;;;5056271;28;20081;-73
2022/03/09 08:01:52;;;;;;;10.85;6.75;;;5.70;50.10;;;;;;5056488;28;20025;-71
2022/03/09 08:04:21;;;;;;;11.25;7.70;;;5.70;49.20;;;;;;5052784;28;20035;-71
2022/03/09 08:06:48;;;;;;;11.27;7.53;;;5.80;49.00;;;;;;5046563;28;20476;-70
2022/03/09 08:09:14;;;;;;;11.35;7.40;;;5.80;48.90;;;;;;5045579;28;20024;-71
2022/03/09 08:11:39;;;;;;;12.32;7.47;;;5.80;48.80;;;;;;5041993;28;20052;-72
2022/03/09 08:14:05;;;;;;;12.05;7.25;;;5.80;48.80;;;;;;5040226;28;20498;-71
2022/03/09 08:16:31;;;;;;;9.63;6.55;;;5.80;48.40;;;;;;5041048;28;20044;-70
2022/03/09 08:18:56;;;;;;;10.88;7.35;;;5.90;48.60;;;;;;5041520;28;20586;-71
2022/03/09 08:21:22;;;;;;;10.55;6.80;;;6.00;48.70;;;;;;5042369;28;20029;-71
2022/03/09 08:23:47;;;;;;;11.82;8.00;;;6.10;48.30;;;;;;5042346;28;20021;-72
2022/03/09 08:26:13;;;;;;;11.05;7.47;;;6.10;48.20;;;;;;5039101;28;20036;-72
2022/03/09 08:28:39;;;;;;;14.45;8.35;;;6.10;48.20;;;;;;5040981;28;20083;-72
2022/03/09 08:31:04;;;;;;;10.98;6.50;;;6.20;48.10;;;;;;5037936;28;20498;-71
2022/03/09 08:33:30;;;;;;;11.60;7.93;;;6.20;47.80;;;;;;5041071;28;20108;-70
2022/03/09 08:35:55;;;;;;;11.98;7.40;;;6.30;47.80;;;;;;5047219;28;20037;-72
2022/03/09 08:38:21;;;;;;;11.93;8.52;;;6.40;47.80;;;;;;5048872;28;20418;-72
2022/03/09 08:40:47;;;;;;;12.75;8.05;;;6.40;47.60;;;;;;5048187;28;20070;-72
2022/03/09 08:43:12;;;;;;;10.60;7.72;;;6.40;47.60;;;;;;5043236;28;20163;-71
2022/03/09 08:45:38;;;;;;;11.02;7.15;;;6.50;47.60;;;;;;5047056;28;20075;-72
2022/03/09 08:48:05;;;;;;;11.88;7.32;;;6.50;47.60;;;;;;5049998;28;20113;-71
2022/03/09 08:50:30;;;;;;;13.43;8.38;;;6.60;47.50;;;;;;5047345;28;20104;-71
2022/03/09 08:52:56;;;;;;;10.57;6.70;;;6.60;47.60;;;;;;5050288;28;20116;-71
2022/03/09 08:55:22;;;;;;;10.50;6.93;;;6.70;47.70;;;;;;5043224;28;20042;-71
2022/03/09 08:57:47;;;;;;;9.95;7.05;;;6.70;47.70;;;;;;5038040;28;20087;-71
2022/03/09 09:00:13;;;;;;;11.23;7.68;;;6.80;47.70;;;;;;5042649;28;20017;-70
2022/03/09 09:02:39;;;;;;;14.30;8.10;;;6.90;47.50;;;;;;5046415;28;20017;-71
2022/03/09 09:05:05;;;;;;;13.93;8.80;;;6.90;47.40;;;;;;5035285;28;20025;-71
2022/03/09 09:07:30;;;;;;;9.60;6.88;;;6.90;47.40;;;;;;5040499;28;20131;-70
2022/03/09 09:09:56;;;;;;;11.13;7.55;;;6.90;47.50;;;;;;5047046;28;20459;-71
2022/03/09 09:12:21;;;;;;;9.80;7.38;;;7.00;47.50;;;;;;5049463;28;20102;-71
2022/03/09 09:14:47;;;;;;;13.25;8.25;;;7.10;47.80;;;;;;5049402;28;20021;-71
2022/03/09 09:17:12;;;;;;;12.57;8.10;;;7.10;47.50;;;;;;5049740;28;20029;-71
2022/03/09 09:19:38;;;;;;;10.80;8.13;;;7.20;47.80;;;;;;5036418;28;20026;-71
2022/03/09 09:22:04;;;;;;;9.25;6.93;;;7.20;47.50;;;;;;5041067;28;20043;-71
2022/03/09 09:24:29;;;;;;;9.23;6.60;;;7.30;47.40;;;;;;5045347;28;20108;-71
2022/03/09 09:26:55;;;;;;;10.45;6.63;;;7.40;47.20;;;;;;5047012;28;20074;-71
2022/03/09 09:29:21;;;;;;;11.43;7.45;;;7.50;47.00;;;;;;5050021;28;20530;-71
2022/03/09 09:31:48;;;;;;;10.43;7.10;;;7.60;46.50;;;;;;5044424;28;20017;-71
2022/03/09 09:34:14;;;;;;;11.40;7.82;;;7.70;46.10;;;;;;5041738;28;20021;-71
2022/03/09 09:36:42;;;;;;;12.02;7.50;;;7.70;45.80;;;;;;5044284;28;20079;-71
2022/03/09 09:39:08;;;;;;;10.65;8.02;;;7.80;45.80;;;;;;5038151;28;20065;-71
2022/03/09 09:41:34;;;;;;;13.88;8.30;;;7.90;45.70;;;;;;5039751;28;20048;-71
2022/03/09 09:44:03;;;;;;;12.20;8.60;;;8.00;44.90;;;;;;5043553;28;21852;-71
2022/03/09 09:46:28;;;;;;;10.00;7.15;;;8.00;45.00;;;;;;5043624;28;20149;-71
2022/03/09 09:48:54;;;;;;;8.52;6.50;;;8.10;45.10;;;;;;5039772;28;20113;-71
2022/03/09 09:51:23;;;;;;;11.38;8.02;;;8.10;45.10;;;;;;5042999;28;20029;-71
2022/03/09 09:53:49;;;;;;;10.30;7.10;;;8.20;44.90;;;;;;5044341;28;20472;-71
2022/03/09 09:56:15;;;;;;;13.93;9.27;;;8.20;44.80;;;;;;5048579;28;20079;-71
2022/03/09 09:58:42;;;;;;;12.23;8.98;;;8.30;44.50;;;;;;5039832;28;20063;-71
2022/03/09 10:01:09;;;;;;;14.50;8.80;;;8.30;44.70;;;;;;5046395;28;20033;-71
2022/03/09 10:03:35;;;;;;;13.68;9.40;;;8.40;44.70;;;;;;5049384;28;20021;-69
2022/03/09 10:06:00;;;;;;;13.23;8.75;;;8.50;44.40;;;;;;5039127;28;20044;-70
2022/03/09 10:08:26;;;;;;;11.85;8.15;;;8.50;44.40;;;;;;5044024;28;20071;-70
2022/03/09 10:10:57;;;;;;;13.20;9.05;;;8.70;44.40;;;;;;5049135;28;20033;-70
2022/03/09 10:13:29;;;;;;;10.10;6.70;;;8.70;43.90;;;;;;5047471;28;20108;-71
2022/03/09 10:16:20;;;;;;;12.25;7.97;;;8.80;43.90;;;;;;5049033;28;20299;-71
2022/03/09 10:18:55;;;;;;;14.68;8.38;;;8.80;43.60;;;;;;5049462;28;20024;-71
2022/03/09 10:21:28;;;;;;;12.10;7.82;;;8.90;43.20;;;;;;5048193;28;20497;-71
2022/03/09 10:24:01;;;;;;;;;;;9.00;43.30;;;;;;5048832;28;20067;-71
2022/03/09 10:26:31;;;;;;;12.45;8.30;;;9.00;43.00;;;;;;5045608;28;19917;-71
2022/03/09 10:29:00;;;;;;;12.48;8.45;;;9.00;43.10;;;;;;5041330;28;20057;-71
2022/03/09 10:31:43;;;;;;;13.48;8.70;;;9.10;43.10;;;;;;5048252;28;20029;-71
2022/03/09 10:34:08;;;;;;;12.43;7.88;;;9.20;43.20;;;;;;5041294;28;20414;-71
2022/03/09 10:36:34;;;;;;;12.75;8.52;;;9.30;42.90;;;;;;5041346;28;20089;-71
2022/03/09 10:39:14;;;;;;;11.40;8.65;;;9.40;42.60;;;;;;5047591;28;20620;-71
2022/03/09 10:41:40;;;;;;;13.40;8.98;;;9.50;42.60;;;;;;5042118;28;20128;-71
2022/03/09 10:44:06;;;;;;;12.38;8.02;;;9.60;42.30;;;;;;5047347;28;20547;-71
2022/03/09 10:46:41;;;;;;;15.05;8.60;;;9.60;42.10;;;;;;5035343;28;20033;-71
2022/03/09 10:49:08;;;;;;;13.00;8.93;;;9.70;42.40;;;;;;5036802;28;20067;-71
2022/03/09 10:51:39;;;;;;;9.77;6.95;;;9.70;42.30;;;;;;5035701;28;20399;-72
2022/03/09 10:54:09;;;;;;;13.70;8.82;;;9.80;42.50;;;;;;5040000;28;20387;-72
2022/03/09 10:56:36;;;;;;;12.52;8.30;;;9.90;43.20;;;;;;5034128;28;20076;-70
2022/03/09 10:59:16;;;;;;;12.20;8.10;;;10.00;42.50;;;;;;5032254;28;20033;-70
2022/03/09 11:01:43;;;;;;;14.32;9.88;;;10.00;42.20;;;;;;5032344;28;20535;-72
2022/03/09 11:04:13;;;;;;;14.32;9.90;;;10.00;41.90;;;;;;5030230;28;20116;-71
2022/03/09 11:06:46;;;;;;;13.38;8.95;;;10.00;41.70;;;;;;5028296;28;20025;-71
2022/03/09 11:09:13;;;;;;;16.45;9.20;;;10.10;42.00;;;;;;5024897;28;20025;-72
2022/03/09 11:11:39;;;;;;;12.85;8.65;;;10.20;42.00;;;;;;5029388;28;20036;-71
2022/03/09 11:14:06;;;;;;;13.20;8.60;;;10.40;42.10;;;;;;5028662;28;20387;-71
2022/03/09 11:16:31;;;;;;;14.85;9.65;;;10.50;42.00;;;;;;5033775;28;20029;-72
2022/03/09 11:18:57;;;;;;;10.43;7.57;;;10.50;41.40;;;;;;5029963;28;20072;-72
2022/03/09 11:21:23;;;;;;;15.55;9.68;;;10.60;41.70;;;;;;5031409;28;21020;-72
2022/03/09 11:23:50;;;;;;;14.55;9.60;;;10.60;40.90;;;;;;5030853;28;20597;-71
2022/03/09 11:26:39;;;;;;;15.07;9.45;;;10.70;40.90;;;;;;5029521;28;20036;-71
2022/03/09 11:29:07;;;;;;;16.17;9.90;;;10.70;40.70;;;;;;5038222;28;20025;-71
2022/03/09 11:31:45;;;;;;;12.75;9.23;;;10.80;40.90;;;;;;5040238;28;20387;-71
2022/03/09 11:34:30;;;;;;;15.57;10.40;;;11.00;41.00;;;;;;5044708;28;20029;-71
2022/03/09 11:37:02;;;;;;;14.60;9.88;;;10.90;40.30;;;;;;5041385;28;20033;-71
2022/03/09 11:39:28;;;;;;;15.68;10.00;;;11.10;40.70;;;;;;5042658;28;20035;-72
2022/03/09 11:42:21;;;;;;;12.13;8.40;;;11.10;40.10;;;;;;5035204;28;20029;-71
2022/03/09 11:44:51;;;;;;;15.95;9.10;;;11.20;40.20;;;;;;5034005;28;20416;-72
2022/03/09 11:47:17;;;;;;;15.15;10.32;;;11.30;40.10;;;;;;5033384;28;20025;-72
2022/03/09 11:49:46;;;;;;;16.98;10.55;;;11.30;39.80;;;;;;5033942;28;20074;-71
2022/03/09 11:52:16;;;;;;;18.92;10.82;;;11.40;39.60;;;;;;5034474;28;20037;-72
2022/03/09 11:54:52;;;;;;;16.27;10.02;;;11.50;39.60;;;;;;5031673;28;20025;-72
2022/03/09 11:57:18;;;;;;;15.80;10.57;;;11.60;39.60;;;;;;5031863;28;20025;-72
2022/03/09 12:00:07;;;;;;;17.05;10.50;;;11.60;39.20;;;;;;5029054;28;20056;-73
2022/03/09 12:02:42;;;;;;;17.58;11.85;;;11.70;39.30;;;;;;5027193;28;20036;-72
2022/03/09 12:05:31;;;;;;;15.75;11.10;;;11.80;39.00;;;;;;5035412;28;20529;-72
2022/03/09 12:08:08;;;;;;;16.05;10.95;;;11.90;39.20;;;;;;5035131;28;20067;-71
2022/03/09 12:10:52;;;;;;;17.83;11.95;;;12.00;38.60;;;;;;5032702;28;20029;-72
2022/03/09 12:13:43;;;;;;;15.88;10.68;;;12.00;37.80;;;;;;5032467;28;20083;-72
2022/03/09 12:16:15;;;;;;;16.10;10.75;;;12.10;37.70;;;;;;5034695;28;20044;-72
2022/03/09 12:19:06;;;;;;;16.15;10.93;;;12.20;38.00;;;;;;5029756;28;20594;-71
2022/03/09 12:21:33;;;;;;;16.95;11.25;;;12.30;37.50;;;;;;5032411;28;20033;-71
2022/03/09 12:24:04;;;;;;;16.90;11.50;;;12.40;37.40;;;;;;5033433;28;20452;-72
2022/03/09 12:26:42;;;;;;;19.38;11.75;;;12.50;37.40;;;;;;5032071;28;20891;-72
2022/03/09 12:29:29;;;;;;;15.35;10.38;;;12.60;36.90;;;;;;5031046;28;21797;-71
2022/03/09 12:32:14;;;;;;;14.80;10.05;;;12.60;36.60;;;;;;5031312;28;20149;-72
2022/03/09 12:34:42;;;;;;;18.08;11.32;;;12.70;37.00;;;;;;5033410;28;20515;-72
2022/03/09 12:37:11;;;;;;;11.63;8.38;;;12.80;36.50;;;;;;5032355;28;20102;-72
2022/03/09 12:39:37;;;;;;;15.68;10.10;;;12.90;36.90;;;;;;5040190;28;20139;-72
2022/03/09 12:42:04;;;;;;;17.27;11.52;;;12.90;36.70;;;;;;5042542;28;20794;-69
2022/03/09 12:44:32;;;;;;;17.30;11.25;;;13.00;36.30;;;;;;5043871;28;20113;-71
2022/03/09 12:47:03;;;;;;;20.10;12.90;;;12.90;36.00;;;;;;5039986;28;20100;-71
2022/03/09 12:49:30;;;;;;;16.95;11.20;;;12.90;35.90;;;;;;5040983;28;20389;-71
2022/03/09 12:51:58;;;;;;;15.75;11.05;;;13.00;36.10;;;;;;5044134;28;20021;-70
2022/03/09 12:54:36;;;;;;;14.48;9.75;;;13.00;36.00;;;;;;5036292;28;20037;-71
2022/03/09 12:57:28;;;;;;;18.08;12.07;;;13.10;36.40;;;;;;5041130;28;20036;-71
2022/03/09 12:59:58;;;;;;;15.55;11.02;;;13.20;35.90;;;;;;5041608;28;20028;-71
2022/03/09 13:02:44;;;;;;;19.48;12.52;;;13.20;36.50;;;;;;5040259;28;20033;-72